createdAt,value
2019-04-01T06:28:09.770Z,6.50
2019-04-01T06:29:09.763Z,7.80
2019-04-01T06:30:09.735Z,7.30
2019-04-01T06:31:09.745Z,8.50
2019-04-01T06:32:09.733Z,7.90
2019-04-01T06:33:09.699Z,7.70
2019-04-01T06:34:09.793Z,8.20
2019-04-01T06:35:09.731Z,7.30
2019-04-01T06:36:09.687Z,9.40
2019-04-01T06:37:09.689Z,7.10
2019-04-01T06:38:09.646Z,8.20
2019-04-01T06:39:09.637Z,8.10
2019-04-01T06:40:09.715Z,9.30
2019-04-01T06:41:09.615Z,7.70
2019-04-01T06:42:09.646Z,7.90
2019-04-01T06:43:09.590Z,7.90
2019-04-01T06:44:09.575Z,6.80
2019-04-01T06:45:09.570Z,8.40
2019-04-01T06:46:09.582Z,6.80
2019-04-01T06:47:09.625Z,8.50
2019-04-01T06:48:09.558Z,7.20
2019-04-01T06:49:09.625Z,6.80
2019-04-01T06:50:09.513Z,7.90
2019-04-01T06:51:09.497Z,6.30
2019-04-01T06:52:09.499Z,4.80
2019-04-01T06:53:09.563Z,6.60
2019-04-01T06:54:09.478Z,7.90
2019-04-01T06:55:09.589Z,5.70
2019-04-01T06:56:09.449Z,6.90
2019-04-01T06:57:09.433Z,6.90
2019-04-01T06:58:11.968Z,7.10
2019-04-01T06:59:09.478Z,5.80
2019-04-01T07:00:09.413Z,6.50
2019-04-01T07:01:09.393Z,6.60
2019-04-01T07:02:09.377Z,6.40
2019-04-01T07:03:09.411Z,5.90
2019-04-01T07:04:10.139Z,7.30
2019-04-01T07:05:12.414Z,7.60
2019-04-01T07:06:09.334Z,7.30
2019-04-01T07:07:18.751Z,8.00
2019-04-01T07:08:10.427Z,8.00
2019-04-01T07:09:09.299Z,5.90
2019-04-01T07:10:09.289Z,7.00
2019-04-01T07:11:09.277Z,6.80
2019-04-01T07:12:09.268Z,6.10
2019-04-01T07:13:09.314Z,7.00
2019-04-01T07:14:10.861Z,7.40
2019-04-01T07:15:09.234Z,6.80
2019-04-01T07:16:15.823Z,6.50
2019-04-01T07:17:10.229Z,4.80
2019-04-01T07:18:09.504Z,6.20
2019-04-01T07:19:09.232Z,6.00
2019-04-01T07:20:09.241Z,5.80
2019-04-01T07:21:09.178Z,9.00
2019-04-01T07:22:09.241Z,6.00
2019-04-01T07:23:09.139Z,7.40
2019-04-01T07:24:10.032Z,6.00
2019-04-01T07:25:09.271Z,6.90
2019-04-01T07:26:09.137Z,7.40
2019-04-01T07:27:09.203Z,7.20
2019-04-01T07:28:09.123Z,6.90
2019-04-01T07:29:09.173Z,7.30
2019-04-01T07:30:09.093Z,7.20
2019-04-01T07:31:09.089Z,7.90
2019-04-01T07:32:09.129Z,7.60
2019-04-01T07:33:09.039Z,6.40
2019-04-01T07:34:09.045Z,6.90
2019-04-01T07:35:09.047Z,7.30
2019-04-01T07:36:10.532Z,8.20
2019-04-01T07:37:08.996Z,7.50
2019-04-01T07:38:09.000Z,7.20
2019-04-01T07:39:08.976Z,7.00
2019-04-01T07:40:09.023Z,7.50
2019-04-01T07:41:08.949Z,7.00
2019-04-01T07:42:08.940Z,6.70
2019-04-01T07:43:08.947Z,6.90
2019-04-01T07:44:08.925Z,6.00
2019-04-01T07:45:08.934Z,6.00
2019-04-01T07:46:08.897Z,6.70
2019-04-01T07:47:08.905Z,5.00
2019-04-01T07:48:12.320Z,8.60
2019-04-01T07:49:08.873Z,7.50
2019-04-01T07:50:12.055Z,7.20
2019-04-01T07:51:08.884Z,5.00
2019-04-01T07:52:08.841Z,7.40
2019-04-01T07:53:08.853Z,6.30
2019-04-01T07:54:09.605Z,7.80
2019-04-01T07:55:08.921Z,7.10
2019-04-01T07:56:08.804Z,6.80
2019-04-01T07:57:08.775Z,6.80
2019-04-01T07:58:08.766Z,6.20
2019-04-01T07:59:08.755Z,6.40
2019-04-01T08:00:08.747Z,6.60
2019-04-01T08:01:08.782Z,7.10
2019-04-01T08:02:08.812Z,8.20
2019-04-01T08:03:08.735Z,7.10
2019-04-01T08:04:08.697Z,7.50
2019-04-01T08:05:08.687Z,6.30
2019-04-01T08:06:08.689Z,5.50
2019-04-01T08:07:08.690Z,5.80
2019-04-01T08:08:08.704Z,6.40
2019-04-01T08:09:08.646Z,7.50
2019-04-01T08:10:08.632Z,6.90
2019-04-01T08:11:08.623Z,7.70
2019-04-01T08:12:08.647Z,6.10
2019-04-01T08:13:08.604Z,6.00
2019-04-01T08:14:08.587Z,7.40
2019-04-01T08:15:08.575Z,6.30
2019-04-01T08:16:08.592Z,6.70
2019-04-01T08:17:08.592Z,7.10
2019-04-01T08:18:08.630Z,7.80
2019-04-01T08:19:08.531Z,6.70
2019-04-01T08:20:08.537Z,7.20
2019-04-01T08:21:08.509Z,6.80
2019-04-01T08:22:08.521Z,5.50
2019-04-01T08:23:08.493Z,6.90
2019-04-01T08:24:08.490Z,6.70
2019-04-01T08:25:08.470Z,7.00
2019-04-01T08:26:08.509Z,6.70
2019-04-01T08:27:08.493Z,7.20
2019-04-01T08:28:08.450Z,6.60
2019-04-01T08:29:08.427Z,7.40
2019-04-01T08:30:08.482Z,5.00
2019-04-01T08:31:08.426Z,6.60
2019-04-01T08:32:08.445Z,6.60
2019-04-01T08:33:08.383Z,5.80
2019-04-01T08:34:08.391Z,6.20
2019-04-01T08:35:08.365Z,5.60
2019-04-01T08:36:08.369Z,6.00
2019-04-01T08:37:08.358Z,6.10
2019-04-01T08:38:08.347Z,6.50
2019-04-01T08:39:08.322Z,7.20
2019-04-01T08:40:09.080Z,7.00
2019-04-01T08:41:08.308Z,7.90
2019-04-01T08:42:08.291Z,5.50
2019-04-01T08:43:08.325Z,5.00
2019-04-01T08:44:08.266Z,6.30
2019-04-01T08:45:08.247Z,5.50
2019-04-01T08:46:08.248Z,5.70
2019-04-01T08:47:08.288Z,6.20
2019-04-01T08:48:08.269Z,6.20
2019-04-01T08:49:08.225Z,5.50
2019-04-01T08:50:09.051Z,5.00
2019-04-01T08:51:08.188Z,6.70
2019-04-01T08:52:08.253Z,5.40
2019-04-01T08:53:08.194Z,6.70
2019-04-01T08:54:08.185Z,6.20
2019-04-01T08:55:08.136Z,5.70
2019-04-01T08:56:08.128Z,5.40
2019-04-01T08:57:08.120Z,7.80
2019-04-01T08:58:08.108Z,4.70
2019-04-01T08:59:08.128Z,5.40
2019-04-01T09:00:08.079Z,6.40
2019-04-01T09:01:08.078Z,5.40
2019-04-01T09:02:17.584Z,6.20
2019-04-01T09:03:09.046Z,4.80
2019-04-01T09:04:08.083Z,6.80
2019-04-01T09:05:08.053Z,6.90
2019-04-01T09:06:08.092Z,6.30
2019-04-01T09:07:08.000Z,5.40
2019-04-01T09:08:08.011Z,5.70
2019-04-01T09:09:08.033Z,6.10
2019-04-01T09:10:07.975Z,8.80
2019-04-01T09:11:07.979Z,6.90
2019-04-01T09:12:07.957Z,5.30
2019-04-01T09:13:07.941Z,7.80
2019-04-01T09:14:07.959Z,6.80
2019-04-01T09:15:07.915Z,8.30
2019-04-01T09:16:07.913Z,6.40
2019-04-01T09:17:07.903Z,7.40
2019-04-01T09:18:07.893Z,5.70
2019-04-01T09:19:07.911Z,5.70
2019-04-01T09:20:07.912Z,6.40
2019-04-01T09:21:07.852Z,6.90
2019-04-01T09:22:07.891Z,7.00
2019-04-01T09:23:07.887Z,5.60
2019-04-01T09:24:07.861Z,7.40
2019-04-01T09:25:07.813Z,7.10
2019-04-01T09:26:08.561Z,6.20
2019-04-01T09:27:07.837Z,6.20
2019-04-01T09:28:07.800Z,6.10
2019-04-01T09:29:07.788Z,6.20
2019-04-01T09:30:07.767Z,6.40
2019-04-01T09:31:07.784Z,5.90
2019-04-01T09:32:07.780Z,5.00
2019-04-01T09:33:07.751Z,6.10
2019-04-01T09:34:07.710Z,7.50
2019-04-01T09:35:07.749Z,5.80
2019-04-01T09:36:07.696Z,7.50
2019-04-01T09:37:07.693Z,7.30
2019-04-01T09:38:07.686Z,5.40
2019-04-01T09:39:07.660Z,7.80
2019-04-01T09:40:07.650Z,7.20
2019-04-01T09:41:07.656Z,6.90
2019-04-01T09:42:07.652Z,7.00
2019-04-01T09:43:07.629Z,7.30
2019-04-01T09:44:07.597Z,6.90
2019-04-01T09:45:07.620Z,6.20
2019-04-01T09:46:07.637Z,7.40
2019-04-01T09:47:07.564Z,6.40
2019-04-01T09:48:07.556Z,7.50
2019-04-01T09:49:08.065Z,8.40
2019-04-01T09:50:08.222Z,6.00
2019-04-01T09:51:07.539Z,6.80
2019-04-01T09:52:07.842Z,5.80
2019-04-01T09:53:07.531Z,7.60
2019-04-01T09:54:07.497Z,6.40
2019-04-01T09:55:07.492Z,6.80
2019-04-01T09:56:07.476Z,5.80
2019-04-01T09:57:17.307Z,7.00
2019-04-01T09:58:08.538Z,4.30
2019-04-01T09:59:07.454Z,7.90
2019-04-01T10:00:07.433Z,6.10
2019-04-01T10:01:07.451Z,6.40
2019-04-01T10:02:07.430Z,5.70
2019-04-01T10:03:07.409Z,8.30
2019-04-01T10:04:07.390Z,6.30
2019-04-01T10:05:07.378Z,6.00
2019-04-01T10:06:10.297Z,8.10
2019-04-01T10:07:07.379Z,5.70
2019-04-01T10:08:07.342Z,6.10
2019-04-01T10:09:07.326Z,8.60
2019-04-01T10:10:07.334Z,6.80
2019-04-01T10:11:07.318Z,6.30
2019-04-01T10:12:07.334Z,7.60
2019-04-01T10:13:07.330Z,5.90
2019-04-01T10:14:07.271Z,8.90
2019-04-01T10:15:07.317Z,6.90
2019-04-01T10:16:07.252Z,6.20
2019-04-01T10:17:07.238Z,6.00
2019-04-01T10:18:07.288Z,6.90
2019-04-01T10:19:07.238Z,6.90
2019-04-01T10:20:07.281Z,7.00
2019-04-01T10:21:07.192Z,5.30
2019-04-01T10:22:07.184Z,5.80
2019-04-01T10:23:07.236Z,6.60
2019-04-01T10:24:07.170Z,7.90
2019-04-01T10:25:07.155Z,6.20
2019-04-01T10:26:07.146Z,6.80
2019-04-01T10:27:07.142Z,5.70
2019-04-01T10:28:07.152Z,7.00
2019-04-01T10:29:07.115Z,7.30
2019-04-01T10:30:07.151Z,5.70
2019-04-01T10:31:07.092Z,7.60
2019-04-01T10:32:07.081Z,8.60
2019-04-01T10:33:07.108Z,7.30
2019-04-01T10:34:07.064Z,5.50
2019-04-01T10:35:07.048Z,6.20
2019-04-01T10:36:07.038Z,7.30
2019-04-01T10:37:07.102Z,5.80
2019-04-01T10:38:07.098Z,6.60
2019-04-01T10:39:07.024Z,7.40
2019-04-01T10:40:07.000Z,6.50
2019-04-01T10:41:06.998Z,7.00
2019-04-01T10:42:07.021Z,9.60
2019-04-01T10:43:06.957Z,5.60
2019-04-01T10:44:06.986Z,7.80
2019-04-01T10:45:06.941Z,6.20
2019-04-01T10:46:06.943Z,7.50
2019-04-01T10:47:06.935Z,6.00
2019-04-01T10:48:07.039Z,7.90
2019-04-01T10:49:06.973Z,5.90
2019-04-01T10:50:06.989Z,6.20
2019-04-01T10:51:06.910Z,7.40
2019-04-01T10:52:06.958Z,6.80
2019-04-01T10:53:06.945Z,9.90
2019-04-01T10:54:06.882Z,6.60
2019-04-01T10:55:06.925Z,5.50
2019-04-01T10:56:06.832Z,6.80
2019-04-01T10:57:06.827Z,5.70
2019-04-01T10:58:06.799Z,6.40
2019-04-01T10:59:06.838Z,5.50
2019-04-01T11:00:06.952Z,6.50
2019-04-01T11:01:06.808Z,7.80
2019-04-01T11:02:06.755Z,6.80
2019-04-01T11:03:06.881Z,7.10
2019-04-01T11:04:06.762Z,6.30
2019-04-01T11:05:06.879Z,6.00
2019-04-01T11:06:06.718Z,6.80
2019-04-01T11:07:06.711Z,8.10
2019-04-01T11:08:06.724Z,5.80
2019-04-01T11:09:06.770Z,7.20
2019-04-01T11:10:06.861Z,6.10
2019-04-01T11:11:06.712Z,6.00
2019-04-01T11:12:06.717Z,6.20
2019-04-01T11:13:06.697Z,6.30
2019-04-01T11:14:06.674Z,7.10
2019-04-01T11:15:06.776Z,7.00
2019-04-01T11:16:08.607Z,6.40
2019-04-01T11:17:07.856Z,6.50
2019-04-01T11:18:06.590Z,5.10
2019-04-01T11:19:06.600Z,7.70
2019-04-01T11:20:08.082Z,6.80
2019-04-01T11:21:06.595Z,7.70
2019-04-01T11:22:06.569Z,6.00
2019-04-01T11:23:06.538Z,9.60
2019-04-01T11:24:07.756Z,6.30
2019-04-01T11:25:06.575Z,6.30
2019-04-01T11:26:06.499Z,8.10
2019-04-01T11:27:06.527Z,6.00
2019-04-01T11:28:06.478Z,6.60
2019-04-01T11:29:06.469Z,6.50
2019-04-01T11:30:07.803Z,6.50
2019-04-01T11:31:06.480Z,7.60
2019-04-01T11:32:07.595Z,7.10
2019-04-01T11:33:07.844Z,7.10
2019-04-01T11:34:06.456Z,7.30
2019-04-01T11:35:06.442Z,6.60
2019-04-01T11:36:06.407Z,6.70
2019-04-01T11:37:06.483Z,5.80
2019-04-01T11:38:06.434Z,6.80
2019-04-01T11:39:06.418Z,6.30
2019-04-01T11:40:11.077Z,6.80
2019-04-01T11:41:07.345Z,7.70
2019-04-01T11:42:06.348Z,5.90
2019-04-01T11:43:06.368Z,7.50
2019-04-01T11:44:06.332Z,6.50
2019-04-01T11:45:06.322Z,5.60
2019-04-01T11:46:06.475Z,6.80
2019-04-01T11:47:06.281Z,6.20
2019-04-01T11:48:08.304Z,7.70
2019-04-01T11:49:06.288Z,6.00
2019-04-01T11:50:06.300Z,7.20
2019-04-01T11:51:06.253Z,6.70
2019-04-01T11:52:06.221Z,6.50
2019-04-01T11:53:06.979Z,5.50
2019-04-01T11:54:08.135Z,7.50
2019-04-01T11:55:09.178Z,7.10
2019-04-01T11:56:07.121Z,6.30
2019-04-01T11:57:06.182Z,7.70
2019-04-01T11:58:06.243Z,6.60
2019-04-01T11:59:06.153Z,7.10
2019-04-01T12:00:06.133Z,6.30
2019-04-01T12:01:06.126Z,7.50
2019-04-01T12:02:06.112Z,7.10
2019-04-01T12:03:06.110Z,6.40
2019-04-01T12:04:06.120Z,6.50
2019-04-01T12:05:06.208Z,6.10
2019-04-01T12:06:06.080Z,6.40
2019-04-01T12:07:06.076Z,7.60
2019-04-01T12:08:06.045Z,7.50
2019-04-01T12:09:06.119Z,7.20
2019-04-01T12:10:07.665Z,7.30
2019-04-01T12:11:06.041Z,7.40
2019-04-01T12:12:06.007Z,6.40
2019-04-01T12:13:06.000Z,7.20
2019-04-01T12:14:06.033Z,6.00
2019-04-01T12:15:05.996Z,7.10
2019-04-01T12:16:06.868Z,6.30
2019-04-01T12:17:05.952Z,6.10
2019-04-01T12:18:05.944Z,6.70
2019-04-01T12:19:06.304Z,7.30
2019-04-01T12:20:05.957Z,6.80
2019-04-01T12:21:05.915Z,7.90
2019-04-01T12:22:07.640Z,7.10
2019-04-01T12:23:05.889Z,5.70
2019-04-01T12:24:05.910Z,7.50
2019-04-01T12:25:05.919Z,5.90
2019-04-01T12:26:15.133Z,6.50
2019-04-01T12:27:06.849Z,6.40
2019-04-01T12:28:05.838Z,7.10
2019-04-01T12:29:06.729Z,6.50
2019-04-01T12:30:05.863Z,6.90
2019-04-01T12:31:05.801Z,5.80
2019-04-01T12:32:05.799Z,6.60
2019-04-01T12:33:05.780Z,7.10
2019-04-01T12:34:05.777Z,7.00
2019-04-01T12:35:05.830Z,5.80
2019-04-01T12:36:05.761Z,6.80
2019-04-01T12:37:05.778Z,5.60
2019-04-01T12:38:05.728Z,8.10
2019-04-01T12:39:05.714Z,8.10
2019-04-01T12:40:05.779Z,6.80
2019-04-01T12:41:05.697Z,6.70
2019-04-01T12:42:05.692Z,7.20
2019-04-01T12:43:05.792Z,6.40
2019-04-01T12:44:05.679Z,6.40
2019-04-01T12:45:05.711Z,7.90
2019-04-01T12:46:05.642Z,8.40
2019-04-01T12:47:05.630Z,8.50
2019-04-01T12:48:05.636Z,5.60
2019-04-01T12:49:05.614Z,6.40
2019-04-01T12:50:06.643Z,7.80
2019-04-01T12:51:05.600Z,7.10
2019-04-01T12:52:05.592Z,7.40
2019-04-01T12:53:05.576Z,6.50
2019-04-01T12:54:05.558Z,7.40
2019-04-01T12:55:05.579Z,6.80
2019-04-01T12:56:05.536Z,7.50
2019-04-01T12:57:05.571Z,7.30
2019-04-01T12:58:05.864Z,6.00
2019-04-01T12:59:05.508Z,6.60
2019-04-01T13:00:05.819Z,6.90
2019-04-01T13:01:05.513Z,7.30
2019-04-01T13:02:05.510Z,8.40
2019-04-01T13:03:05.482Z,8.00
2019-04-01T13:04:05.441Z,6.70
2019-04-01T13:05:05.571Z,5.80
2019-04-01T13:06:05.449Z,7.30
2019-04-01T13:07:05.490Z,6.60
2019-04-01T13:08:05.437Z,6.70
2019-04-01T13:09:05.395Z,7.70
2019-04-01T13:10:05.381Z,8.50
2019-04-01T13:11:05.387Z,7.10
2019-04-01T13:12:05.377Z,6.20
2019-04-01T13:13:05.390Z,7.20
2019-04-01T13:14:05.334Z,7.70
2019-04-01T13:15:05.325Z,6.90
2019-04-01T13:16:08.778Z,6.50
2019-04-01T13:17:05.305Z,6.30
2019-04-01T13:18:05.308Z,7.10
2019-04-01T13:19:05.288Z,6.90
2019-04-01T13:20:08.134Z,7.60
2019-04-01T13:21:05.263Z,8.00
2019-04-01T13:22:05.300Z,6.20
2019-04-01T13:23:05.236Z,5.80
2019-04-01T13:24:05.398Z,6.80
2019-04-01T13:25:05.759Z,6.10
2019-04-01T13:26:05.271Z,6.90
2019-04-01T13:27:09.222Z,6.90
2019-04-01T13:28:05.199Z,6.70
2019-04-01T13:29:05.184Z,7.20
2019-04-01T13:30:05.159Z,6.60
2019-04-01T13:31:05.162Z,7.10
2019-04-01T13:32:07.190Z,7.60
2019-04-01T13:33:05.133Z,8.00
2019-04-01T13:34:05.215Z,7.00
2019-04-01T13:35:05.109Z,6.80
2019-04-01T13:36:07.835Z,7.00
2019-04-01T13:37:05.118Z,6.50
2019-04-01T13:38:05.067Z,7.10
2019-04-01T13:39:05.079Z,7.60
2019-04-01T13:40:05.053Z,6.50
2019-04-01T13:41:05.058Z,6.00
2019-04-01T13:42:05.027Z,7.00
2019-04-01T13:43:05.059Z,6.70
2019-04-01T13:44:08.547Z,6.90
2019-04-01T13:45:05.010Z,6.30
2019-04-01T13:46:04.996Z,8.20
2019-04-01T13:47:04.989Z,6.40
2019-04-01T13:48:05.023Z,7.20
2019-04-01T13:49:05.005Z,5.50
2019-04-01T13:50:04.938Z,5.80
2019-04-01T13:51:05.638Z,7.40
2019-04-01T13:52:04.929Z,6.60
2019-04-01T13:53:04.930Z,7.50
2019-04-01T13:54:09.055Z,7.00
2019-04-01T13:55:05.887Z,6.20
2019-04-01T13:56:04.897Z,7.60
2019-04-01T13:57:04.873Z,6.00
2019-04-01T13:58:04.882Z,6.90
2019-04-01T13:59:04.867Z,6.60
2019-04-01T14:00:04.838Z,8.00
2019-04-01T14:01:04.821Z,7.60
2019-04-01T14:02:04.812Z,8.50
2019-04-01T14:03:04.797Z,7.90
2019-04-01T14:04:04.809Z,8.20
2019-04-01T14:05:06.288Z,7.40
2019-04-01T14:06:04.766Z,7.50
2019-04-01T14:07:05.000Z,6.90
2019-04-01T14:08:06.009Z,8.20
2019-04-01T14:09:05.083Z,7.00
2019-04-01T14:10:04.721Z,7.40
2019-04-01T14:11:06.076Z,7.00
2019-04-01T14:12:04.698Z,8.60
2019-04-01T14:13:04.778Z,8.00
2019-04-01T14:14:04.693Z,7.40
2019-04-01T14:15:04.662Z,7.30
2019-04-01T14:16:04.665Z,7.30
2019-04-01T14:17:04.709Z,7.50
2019-04-01T14:18:04.662Z,7.40
2019-04-01T14:19:04.679Z,7.90
2019-04-01T14:20:04.613Z,8.60
2019-04-01T14:21:15.878Z,7.30
2019-04-01T14:22:05.591Z,7.10
2019-04-01T14:23:04.586Z,7.60
2019-04-01T14:24:04.580Z,6.80
2019-04-01T14:25:07.306Z,7.90
2019-04-01T14:26:04.580Z,7.10
2019-04-01T14:27:04.555Z,7.40
2019-04-01T14:28:04.541Z,7.30
2019-04-01T14:29:04.518Z,5.90
2019-04-01T14:30:05.695Z,9.50
2019-04-01T14:31:05.255Z,6.90
2019-04-01T14:32:04.783Z,5.80
2019-04-01T14:33:04.465Z,7.40
2019-04-01T14:34:06.422Z,6.70
2019-04-01T14:35:04.673Z,6.50
2019-04-01T14:36:04.862Z,7.80
2019-04-01T14:37:04.956Z,6.20
2019-04-01T14:38:04.413Z,8.10
2019-04-01T14:39:04.407Z,6.50
2019-04-01T14:40:04.385Z,6.40
2019-04-01T14:41:04.400Z,7.30
2019-04-01T14:42:04.374Z,8.30
2019-04-01T14:43:04.359Z,6.60
2019-04-01T14:44:04.354Z,8.50
2019-04-01T14:45:05.878Z,8.70
2019-04-01T14:46:05.810Z,7.70
2019-04-01T14:47:04.326Z,8.00
2019-04-01T14:48:06.693Z,7.40
2019-04-01T14:49:04.293Z,6.90
2019-04-01T14:50:07.536Z,6.70
2019-04-01T14:51:04.317Z,7.50
2019-04-01T14:52:04.265Z,7.40
2019-04-01T14:53:04.251Z,6.70
2019-04-01T14:54:05.891Z,8.70
2019-04-01T14:55:04.230Z,8.40
2019-04-01T14:56:04.228Z,7.20
2019-04-01T14:57:04.224Z,6.60
2019-04-01T14:58:04.194Z,7.40
2019-04-01T14:59:04.181Z,6.70
2019-04-01T15:00:04.204Z,6.60
2019-04-01T15:01:04.151Z,8.30
2019-04-01T15:02:04.182Z,7.80
2019-04-01T15:03:04.147Z,7.40
2019-04-01T15:04:04.129Z,7.70
2019-04-01T15:05:04.984Z,6.40
2019-04-01T15:06:04.097Z,9.10
2019-04-01T15:07:04.089Z,7.00
2019-04-01T15:08:04.101Z,8.20
2019-04-01T15:09:04.090Z,7.80
2019-04-01T15:10:04.069Z,8.50
2019-04-01T15:11:04.057Z,8.50
2019-04-01T15:12:04.053Z,7.90
2019-04-01T15:13:05.985Z,7.80
2019-04-01T15:14:04.025Z,7.80
2019-04-01T15:15:04.406Z,6.50
2019-04-01T15:16:04.069Z,6.70
2019-04-01T15:17:04.008Z,8.20
2019-04-01T15:18:04.750Z,7.60
2019-04-01T15:19:03.960Z,7.00
2019-04-01T15:20:03.963Z,7.70
2019-04-01T15:21:03.941Z,6.90
2019-04-01T15:22:03.930Z,6.40
2019-04-01T15:23:03.954Z,6.30
2019-04-01T15:24:03.921Z,7.30
2019-04-01T15:25:03.949Z,8.10
2019-04-01T15:26:04.068Z,8.50
2019-04-01T15:27:04.017Z,8.70
2019-04-01T15:28:03.885Z,8.00
2019-04-01T15:29:03.887Z,6.90
2019-04-01T15:30:03.840Z,8.30
2019-04-01T15:31:03.833Z,8.00
2019-04-01T15:32:03.833Z,7.10
2019-04-01T15:33:03.829Z,6.80
2019-04-01T15:34:03.820Z,9.10
2019-04-01T15:35:03.807Z,8.00
2019-04-01T15:36:04.272Z,8.20
2019-04-01T15:37:03.762Z,8.70
2019-04-01T15:38:03.794Z,9.20
2019-04-01T15:39:03.761Z,8.50
2019-04-01T15:40:03.739Z,8.00
2019-04-01T15:41:03.727Z,9.50
2019-04-01T15:42:03.717Z,8.60
2019-04-01T15:43:03.701Z,7.20
2019-04-01T15:44:03.727Z,8.20
2019-04-01T15:45:03.697Z,8.70
2019-04-01T15:46:04.181Z,7.00
2019-04-01T15:47:04.617Z,7.20
2019-04-01T15:48:03.643Z,6.90
2019-04-01T15:49:03.629Z,7.00
2019-04-01T15:50:03.666Z,8.60
2019-04-01T15:51:03.605Z,7.00
2019-04-01T15:52:03.613Z,7.60
2019-04-01T15:53:03.587Z,8.00
2019-04-01T15:54:04.430Z,7.60
2019-04-01T15:55:03.586Z,8.20
2019-04-01T15:56:03.593Z,8.90
2019-04-01T15:57:03.544Z,8.20
2019-04-01T15:58:03.553Z,8.20
2019-04-01T15:59:03.538Z,8.10
2019-04-01T16:00:03.710Z,8.10
2019-04-01T16:01:03.522Z,8.40
2019-04-01T16:02:03.571Z,7.70
2019-04-01T16:03:03.479Z,8.30
2019-04-01T16:04:03.474Z,8.70
2019-04-01T16:05:03.457Z,9.20
2019-04-01T16:06:03.463Z,8.20
2019-04-01T16:07:03.429Z,7.30
2019-04-01T16:08:03.431Z,6.80
2019-04-01T16:09:03.415Z,6.40
2019-04-01T16:10:03.405Z,8.90
2019-04-01T16:11:03.481Z,7.30
2019-04-01T16:12:03.382Z,8.60
2019-04-01T16:13:03.391Z,8.20
2019-04-01T16:14:03.361Z,7.40
2019-04-01T16:15:03.346Z,8.50
2019-04-01T16:16:03.339Z,10.60
2019-04-01T16:17:05.208Z,8.70
2019-04-01T16:18:03.313Z,8.00
2019-04-01T16:19:03.326Z,7.80
2019-04-01T16:20:03.296Z,8.40
2019-04-01T16:21:03.291Z,7.40
2019-04-01T16:22:03.357Z,7.80
2019-04-01T16:23:03.265Z,8.60
2019-04-01T16:24:03.242Z,7.30
2019-04-01T16:25:03.236Z,9.70
2019-04-01T16:26:03.221Z,10.60
2019-04-01T16:27:03.249Z,9.10
2019-04-01T16:28:03.266Z,9.00
2019-04-01T16:29:03.220Z,7.40
2019-04-01T16:30:03.183Z,7.90
2019-04-01T16:31:03.187Z,8.60
2019-04-01T16:32:03.197Z,8.50
2019-04-01T16:33:03.151Z,8.30
2019-04-01T16:34:03.151Z,7.70
2019-04-01T16:35:03.127Z,7.60
2019-04-01T16:36:03.131Z,9.10
2019-04-01T16:37:03.135Z,7.50
2019-04-01T16:38:03.090Z,7.80
2019-04-01T16:39:03.083Z,8.10
2019-04-01T16:40:05.805Z,8.50
2019-04-01T16:41:03.063Z,7.70
2019-04-01T16:42:03.086Z,7.60
2019-04-01T16:43:03.041Z,7.50
2019-04-01T16:44:03.021Z,9.00
2019-04-01T16:45:03.016Z,9.20
2019-04-01T16:46:03.017Z,8.00
2019-04-01T16:47:02.997Z,7.90
2019-04-01T16:48:03.007Z,6.90
2019-04-01T16:49:02.971Z,7.70
2019-04-01T16:50:03.014Z,8.10
2019-04-01T16:51:03.209Z,8.00
2019-04-01T16:52:02.943Z,7.30
2019-04-01T16:53:02.963Z,8.20
2019-04-01T16:54:02.916Z,9.40
2019-04-01T16:55:02.910Z,8.00
2019-04-01T16:56:02.891Z,8.10
2019-04-01T16:57:02.893Z,9.00
2019-04-01T16:58:03.187Z,8.80
2019-04-01T16:59:02.886Z,8.00
2019-04-01T17:00:02.863Z,8.80
2019-04-01T17:01:02.869Z,9.40
2019-04-01T17:02:17.049Z,7.90
2019-04-01T17:03:03.871Z,8.20
2019-04-01T17:04:02.823Z,9.10
2019-04-01T17:05:02.803Z,7.70
2019-04-01T17:06:02.789Z,8.70
2019-04-01T17:07:02.784Z,9.00
2019-04-01T17:08:02.769Z,9.70
2019-04-01T17:09:02.803Z,9.00
2019-04-01T17:10:03.273Z,9.00
2019-04-01T17:11:02.733Z,8.90
2019-04-01T17:12:02.721Z,9.70
2019-04-01T17:13:02.728Z,8.40
2019-04-01T17:14:02.725Z,8.30
2019-04-01T17:15:03.641Z,9.30
2019-04-01T17:16:02.671Z,7.50
2019-04-01T17:17:02.662Z,8.90
2019-04-01T17:18:02.655Z,9.20
2019-04-01T17:19:02.673Z,9.90
2019-04-01T17:20:02.638Z,9.10
2019-04-01T17:21:05.042Z,8.60
2019-04-01T17:22:03.077Z,8.70
2019-04-01T17:23:02.598Z,9.70
2019-04-01T17:24:02.638Z,9.60
2019-04-01T17:25:02.572Z,9.70
2019-04-01T17:26:02.572Z,9.90
2019-04-01T17:27:02.559Z,7.70
2019-04-01T17:28:02.550Z,9.30
2019-04-01T17:29:02.573Z,8.30
2019-04-01T17:30:02.559Z,9.30
2019-04-01T17:31:02.511Z,9.00
2019-04-01T17:32:02.504Z,9.60
2019-04-01T17:33:02.501Z,9.00
2019-04-01T17:34:02.485Z,9.80
2019-04-01T17:35:02.507Z,8.70
2019-04-01T17:36:02.478Z,10.40
2019-04-01T17:37:02.448Z,10.50
2019-04-01T17:38:02.437Z,10.00
2019-04-01T17:39:02.424Z,9.40
2019-04-01T17:40:02.463Z,10.60
2019-04-01T17:41:02.409Z,10.40
2019-04-01T17:42:02.403Z,9.50
2019-04-01T17:43:02.379Z,9.10
2019-04-01T17:44:02.369Z,9.90
2019-04-01T17:45:02.366Z,11.10
2019-04-01T17:46:02.374Z,8.30
2019-04-01T17:47:02.331Z,9.60
2019-04-01T17:48:02.320Z,8.50
2019-04-01T17:49:02.413Z,9.10
2019-04-01T17:50:02.299Z,9.40
2019-04-01T17:51:02.307Z,10.00
2019-04-01T17:52:04.330Z,10.80
2019-04-01T17:53:02.275Z,8.90
2019-04-01T17:54:02.255Z,11.40
2019-04-01T17:55:02.243Z,10.30
2019-04-01T17:56:02.256Z,9.40
2019-04-01T17:57:02.236Z,9.50
2019-04-01T17:58:02.226Z,9.10
2019-04-01T17:59:02.361Z,9.40
2019-04-01T18:00:02.193Z,10.50
2019-04-01T18:01:02.217Z,11.20
2019-04-01T18:02:02.165Z,8.50
2019-04-01T18:03:02.161Z,9.90
2019-04-01T18:04:02.479Z,10.10
2019-04-01T18:05:02.139Z,13.80
2019-04-01T18:06:02.204Z,11.60
2019-04-01T18:07:02.130Z,13.70
2019-04-01T18:08:02.106Z,12.50
2019-04-01T18:09:02.156Z,14.30
2019-04-01T18:10:02.076Z,12.40
2019-04-01T18:11:02.090Z,11.10
2019-04-01T18:12:02.062Z,11.20
2019-04-01T18:13:02.048Z,10.00
2019-04-01T18:14:02.974Z,10.40
2019-04-01T18:15:02.024Z,11.00
2019-04-01T18:16:02.031Z,10.60
2019-04-01T18:17:02.004Z,11.40
2019-04-01T18:18:01.987Z,10.20
2019-04-01T18:19:01.985Z,10.30
2019-04-01T18:20:01.991Z,12.00
2019-04-01T18:21:03.314Z,9.60
2019-04-01T18:22:01.953Z,11.70
2019-04-01T18:23:01.932Z,9.10
2019-04-01T18:24:01.927Z,10.30
2019-04-01T18:25:01.918Z,10.00
2019-04-01T18:26:01.916Z,9.80
2019-04-01T18:27:01.942Z,12.00
2019-04-01T18:28:01.898Z,8.30
2019-04-01T18:29:01.870Z,9.80
2019-04-01T18:30:01.872Z,10.80
2019-04-01T18:31:01.846Z,11.20
2019-04-01T18:32:02.375Z,8.40
2019-04-01T18:33:01.829Z,9.60
2019-04-01T18:34:01.819Z,12.50
2019-04-01T18:35:03.960Z,9.90
2019-04-01T18:36:01.812Z,8.20
2019-04-01T18:37:01.805Z,10.60
2019-04-01T18:38:01.774Z,10.00
2019-04-01T18:39:03.970Z,11.50
2019-04-01T18:40:01.761Z,13.80
2019-04-01T18:41:01.745Z,10.30
2019-04-01T18:42:02.902Z,9.40
2019-04-01T18:43:01.714Z,9.60
2019-04-01T18:44:01.704Z,11.50
2019-04-01T18:45:01.699Z,11.50
2019-04-01T18:46:01.685Z,13.00
2019-04-01T18:47:03.927Z,10.80
2019-04-01T18:48:01.666Z,12.30
2019-04-01T18:49:01.648Z,11.80
2019-04-01T18:50:01.657Z,11.70
2019-04-01T18:51:01.627Z,11.50
2019-04-01T18:52:01.639Z,10.90
2019-04-01T18:53:01.615Z,11.90
2019-04-01T18:54:01.598Z,11.40
2019-04-01T18:55:02.205Z,13.00
2019-04-01T18:56:02.610Z,13.80
2019-04-01T18:57:03.609Z,11.20
2019-04-01T18:58:01.566Z,12.90
2019-04-01T18:59:01.555Z,14.50
2019-04-01T19:00:01.530Z,14.70
2019-04-01T19:01:04.299Z,12.80
2019-04-01T19:02:01.527Z,13.50
2019-04-01T19:03:01.507Z,13.60
2019-04-01T19:04:01.487Z,12.10
2019-04-01T19:05:01.476Z,11.60
2019-04-01T19:06:01.482Z,14.60
2019-04-01T19:07:01.709Z,14.00
2019-04-01T19:08:01.446Z,13.10
2019-04-01T19:09:09.143Z,12.20
2019-04-01T19:10:06.464Z,15.60
2019-04-01T19:11:02.553Z,15.00
2019-04-01T19:12:04.033Z,15.60
2019-04-01T19:13:06.034Z,14.70
2019-04-01T19:14:02.483Z,14.00
2019-04-01T19:15:02.547Z,13.50
2019-04-01T19:16:03.109Z,16.10
2019-04-01T19:17:01.369Z,14.50
2019-04-01T19:18:01.328Z,14.50
2019-04-01T19:19:01.336Z,13.70
2019-04-01T19:20:01.313Z,14.10
2019-04-01T19:21:04.702Z,13.00
2019-04-01T19:22:01.313Z,12.40
2019-04-01T19:23:02.224Z,13.50
2019-04-01T19:24:01.262Z,12.80
2019-04-01T19:25:01.269Z,13.20
2019-04-01T19:26:01.262Z,13.00
2019-04-01T19:27:01.251Z,13.10
2019-04-01T19:28:01.219Z,14.50
2019-04-01T19:29:01.209Z,12.80
2019-04-01T19:30:01.208Z,12.10
2019-04-01T19:31:01.189Z,11.90
2019-04-01T19:32:01.208Z,14.50
2019-04-01T19:33:01.167Z,11.20
2019-04-01T19:34:01.160Z,12.50
2019-04-01T19:35:01.147Z,12.90
2019-04-01T19:36:01.598Z,10.80
2019-04-01T19:37:01.154Z,10.70
2019-04-01T19:38:01.125Z,11.40
2019-04-01T19:39:01.105Z,11.40
2019-04-01T19:40:01.109Z,10.50
2019-04-01T19:41:02.089Z,12.30
2019-04-01T19:42:01.099Z,11.40
2019-04-01T19:43:03.622Z,9.80